メインページ
METAR-TAF:

METAR-TAF

空港 :

Joliet Regional Airport

ジョリエット, イリノイ州, アメリカ合衆国

緯度: 41-31-05N, 経度: 088-10-31W, 海抜: 177m

現時点の気象観測

当レポートは25分前の05:55(UTC)に作成
無風
気温 24°C
湿度 78%
気圧 1015 hPa
視程: 16.1km
高度12000ftの千切れ雲あり

METAR: KJOT 270555Z AUTO 00000KT 10SM BKN120 24/20 A2996 RMK AO2 T02350201 10285 20235 403080184

時間: 01:20 (06:20 UTC)


TAF: 見つかりません

4,000以上の空港の気象観測と天気予報(METAR報とTAF報)

利用可能な観測所は地図上に黄色い丸と赤い丸で示す。

丸の上にカーソルを重ねると観測所名を参照できる。

次にクリックすると気象観測と天気予報を参照できる。

マップの切り替え:黒色「×」印の緑ボタンをクリックして拡大、「-」印の緑ボタンをクリックして縮小、緑色の三角印をクリックして隣りの地図に切り替え


METAR-TAF: